sensor_id;sensor_type;location;lat;lon;timestamp;temperature;humidity
22288;DHT22;11312;51.464;6.968;2023-09-19T00:02:17;15.70;99.90
22288;DHT22;11312;51.464;6.968;2023-09-19T00:04:43;15.60;99.90
22288;DHT22;11312;51.464;6.968;2023-09-19T00:07:09;15.40;99.90
22288;DHT22;11312;51.464;6.968;2023-09-19T00:09:35;15.70;99.90
22288;DHT22;11312;51.464;6.968;2023-09-19T00:12:05;15.50;99.90
22288;DHT22;11312;51.464;6.968;2023-09-19T00:14:31;15.40;99.90
22288;DHT22;11312;51.464;6.968;2023-09-19T00:17:00;15.50;99.90
22288;DHT22;11312;51.464;6.968;2023-09-19T00:19:26;15.30;99.90
22288;DHT22;11312;51.464;6.968;2023-09-19T00:21:52;15.40;99.90
22288;DHT22;11312;51.464;6.968;2023-09-19T00:24:18;15.40;99.90
22288;DHT22;11312;51.464;6.968;2023-09-19T00:26:44;15.30;99.90
22288;DHT22;11312;51.464;6.968;2023-09-19T00:29:12;15.40;99.90
22288;DHT22;11312;51.464;6.968;2023-09-19T00:31:43;15.30;99.90
22288;DHT22;11312;51.464;6.968;2023-09-19T00:34:09;15.30;99.90
22288;DHT22;11312;51.464;6.968;2023-09-19T00:36:36;15.20;99.90
22288;DHT22;11312;51.464;6.968;2023-09-19T00:39:05;15.20;99.90
22288;DHT22;11312;51.464;6.968;2023-09-19T00:41:34;15.10;99.90
22288;DHT22;11312;51.464;6.968;2023-09-19T00:44:03;15.10;99.90
22288;DHT22;11312;51.464;6.968;2023-09-19T00:46:32;15.10;99.90
22288;DHT22;11312;51.464;6.968;2023-09-19T00:48:58;15.10;99.90
22288;DHT22;11312;51.464;6.968;2023-09-19T00:51:25;15.10;99.90
22288;DHT22;11312;51.464;6.968;2023-09-19T00:53:52;15.20;99.90
22288;DHT22;11312;51.464;6.968;2023-09-19T00:56:18;15.10;99.90
22288;DHT22;11312;51.464;6.968;2023-09-19T00:58:45;15.00;99.90
22288;DHT22;11312;51.464;6.968;2023-09-19T01:01:13;15.00;99.90
22288;DHT22;11312;51.464;6.968;2023-09-19T01:03:40;15.00;99.90
22288;DHT22;11312;51.464;6.968;2023-09-19T01:06:06;14.90;99.90
22288;DHT22;11312;51.464;6.968;2023-09-19T01:08:34;14.90;99.90
22288;DHT22;11312;51.464;6.968;2023-09-19T01:16:53;14.90;99.90
22288;DHT22;11312;51.464;6.968;2023-09-19T01:28:06;14.90;99.90
22288;DHT22;11312;51.464;6.968;2023-09-19T01:30:36;14.90;99.90
22288;DHT22;11312;51.464;6.968;2023-09-19T01:33:05;14.80;99.90
22288;DHT22;11312;51.464;6.968;2023-09-19T01:35:31;14.80;99.90
22288;DHT22;11312;51.464;6.968;2023-09-19T01:37:58;14.70;99.90
22288;DHT22;11312;51.464;6.968;2023-09-19T01:40:24;14.70;99.90
22288;DHT22;11312;51.464;6.968;2023-09-19T01:48:57;14.70;99.90
22288;DHT22;11312;51.464;6.968;2023-09-19T01:54:03;14.70;99.90
22288;DHT22;11312;51.464;6.968;2023-09-19T01:56:42;14.70;99.90
22288;DHT22;11312;51.464;6.968;2023-09-19T01:59:13;14.70;99.90
22288;DHT22;11312;51.464;6.968;2023-09-19T02:01:42;14.10;99.90
22288;DHT22;11312;51.464;6.968;2023-09-19T02:04:10;14.60;99.90
22288;DHT22;11312;51.464;6.968;2023-09-19T02:06:40;14.60;99.90
22288;DHT22;11312;51.464;6.968;2023-09-19T02:09:06;14.50;99.90
22288;DHT22;11312;51.464;6.968;2023-09-19T02:11:32;14.60;99.90
22288;DHT22;11312;51.464;6.968;2023-09-19T02:13:58;14.50;99.90
22288;DHT22;11312;51.464;6.968;2023-09-19T02:16:25;14.60;99.90
22288;DHT22;11312;51.464;6.968;2023-09-19T02:18:50;14.50;99.90
22288;DHT22;11312;51.464;6.968;2023-09-19T02:21:17;14.50;99.90
22288;DHT22;11312;51.464;6.968;2023-09-19T02:23:44;14.50;99.90
22288;DHT22;11312;51.464;6.968;2023-09-19T02:26:10;14.40;99.90
22288;DHT22;11312;51.464;6.968;2023-09-19T02:28:37;14.40;99.90
22288;DHT22;11312;51.464;6.968;2023-09-19T02:31:03;14.50;99.90
22288;DHT22;11312;51.464;6.968;2023-09-19T02:33:31;14.50;99.90
22288;DHT22;11312;51.464;6.968;2023-09-19T02:35:58;14.50;99.90
22288;DHT22;11312;51.464;6.968;2023-09-19T02:38:25;14.50;99.90
22288;DHT22;11312;51.464;6.968;2023-09-19T02:40:52;14.40;99.90
22288;DHT22;11312;51.464;6.968;2023-09-19T02:43:18;14.40;99.90
22288;DHT22;11312;51.464;6.968;2023-09-19T02:45:45;14.50;99.90
22288;DHT22;11312;51.464;6.968;2023-09-19T02:48:12;14.40;99.90
22288;DHT22;11312;51.464;6.968;2023-09-19T02:50:38;14.50;99.90
22288;DHT22;11312;51.464;6.968;2023-09-19T02:53:05;14.40;99.90
22288;DHT22;11312;51.464;6.968;2023-09-19T02:55:32;14.40;99.90
22288;DHT22;11312;51.464;6.968;2023-09-19T02:57:58;14.40;99.90
22288;DHT22;11312;51.464;6.968;2023-09-19T03:00:24;14.40;99.90
22288;DHT22;11312;51.464;6.968;2023-09-19T03:02:54;14.40;99.90
22288;DHT22;11312;51.464;6.968;2023-09-19T03:05:21;14.30;99.90
22288;DHT22;11312;51.464;6.968;2023-09-19T03:07:49;14.40;99.90
22288;DHT22;11312;51.464;6.968;2023-09-19T03:10:19;14.40;99.90
22288;DHT22;11312;51.464;6.968;2023-09-19T03:12:46;14.40;99.90
22288;DHT22;11312;51.464;6.968;2023-09-19T03:15:12;14.30;99.90
22288;DHT22;11312;51.464;6.968;2023-09-19T03:17:38;14.30;99.90
22288;DHT22;11312;51.464;6.968;2023-09-19T03:20:08;14.30;99.90
22288;DHT22;11312;51.464;6.968;2023-09-19T03:22:34;14.30;99.90
22288;DHT22;11312;51.464;6.968;2023-09-19T03:25:00;14.30;99.90
22288;DHT22;11312;51.464;6.968;2023-09-19T03:27:26;14.20;99.90
22288;DHT22;11312;51.464;6.968;2023-09-19T03:29:52;14.20;99.90
22288;DHT22;11312;51.464;6.968;2023-09-19T03:32:19;14.10;99.90
22288;DHT22;11312;51.464;6.968;2023-09-19T03:34:45;14.10;99.90
22288;DHT22;11312;51.464;6.968;2023-09-19T03:37:10;14.10;99.90
22288;DHT22;11312;51.464;6.968;2023-09-19T03:39:37;14.10;99.90
22288;DHT22;11312;51.464;6.968;2023-09-19T03:42:03;14.20;99.90
22288;DHT22;11312;51.464;6.968;2023-09-19T03:44:30;14.20;99.90
22288;DHT22;11312;51.464;6.968;2023-09-19T03:46:56;14.10;99.90
22288;DHT22;11312;51.464;6.968;2023-09-19T03:49:22;14.10;99.90
22288;DHT22;11312;51.464;6.968;2023-09-19T03:51:48;14.10;99.90
22288;DHT22;11312;51.464;6.968;2023-09-19T03:54:14;14.00;99.90
22288;DHT22;11312;51.464;6.968;2023-09-19T03:56:39;14.00;99.90
22288;DHT22;11312;51.464;6.968;2023-09-19T03:59:05;14.00;99.90
22288;DHT22;11312;51.464;6.968;2023-09-19T04:01:30;14.00;99.90
22288;DHT22;11312;51.464;6.968;2023-09-19T04:03:58;14.00;99.90
22288;DHT22;11312;51.464;6.968;2023-09-19T04:06:24;14.00;99.90
22288;DHT22;11312;51.464;6.968;2023-09-19T04:08:50;14.00;99.90
22288;DHT22;11312;51.464;6.968;2023-09-19T04:11:16;14.00;99.90
22288;DHT22;11312;51.464;6.968;2023-09-19T04:13:41;14.00;99.90
22288;DHT22;11312;51.464;6.968;2023-09-19T04:16:07;14.00;99.90
22288;DHT22;11312;51.464;6.968;2023-09-19T04:18:33;14.00;99.90
22288;DHT22;11312;51.464;6.968;2023-09-19T04:21:02;14.00;99.90
22288;DHT22;11312;51.464;6.968;2023-09-19T04:23:29;13.90;99.90
22288;DHT22;11312;51.464;6.968;2023-09-19T04:25:55;13.90;99.90
22288;DHT22;11312;51.464;6.968;2023-09-19T04:28:20;13.90;99.90
22288;DHT22;11312;51.464;6.968;2023-09-19T04:30:46;14.00;99.90
22288;DHT22;11312;51.464;6.968;2023-09-19T04:33:12;13.90;99.90
22288;DHT22;11312;51.464;6.968;2023-09-19T04:35:40;14.00;99.90
22288;DHT22;11312;51.464;6.968;2023-09-19T04:38:08;13.90;99.90
22288;DHT22;11312;51.464;6.968;2023-09-19T04:40:34;13.90;99.90
22288;DHT22;11312;51.464;6.968;2023-09-19T04:43:00;13.90;99.90
22288;DHT22;11312;51.464;6.968;2023-09-19T04:45:26;13.90;99.90
22288;DHT22;11312;51.464;6.968;2023-09-19T04:47:53;13.90;99.90
22288;DHT22;11312;51.464;6.968;2023-09-19T04:50:19;14.00;99.90
22288;DHT22;11312;51.464;6.968;2023-09-19T04:52:49;13.90;99.90
22288;DHT22;11312;51.464;6.968;2023-09-19T04:55:17;13.90;99.90
22288;DHT22;11312;51.464;6.968;2023-09-19T04:57:46;13.90;99.90
22288;DHT22;11312;51.464;6.968;2023-09-19T05:00:17;13.90;99.90
22288;DHT22;11312;51.464;6.968;2023-09-19T05:02:45;13.90;99.90
22288;DHT22;11312;51.464;6.968;2023-09-19T05:05:11;14.00;99.90
22288;DHT22;11312;51.464;6.968;2023-09-19T05:07:41;13.90;99.90
22288;DHT22;11312;51.464;6.968;2023-09-19T05:10:08;14.00;99.90
22288;DHT22;11312;51.464;6.968;2023-09-19T05:12:34;14.00;99.90
22288;DHT22;11312;51.464;6.968;2023-09-19T05:15:05;13.90;99.90
22288;DHT22;11312;51.464;6.968;2023-09-19T05:17:32;13.90;99.90
22288;DHT22;11312;51.464;6.968;2023-09-19T05:19:59;14.00;99.90
22288;DHT22;11312;51.464;6.968;2023-09-19T05:22:31;13.90;99.90
22288;DHT22;11312;51.464;6.968;2023-09-19T05:24:58;13.90;99.90
22288;DHT22;11312;51.464;6.968;2023-09-19T05:27:24;13.90;99.90
22288;DHT22;11312;51.464;6.968;2023-09-19T05:29:49;13.90;99.90
22288;DHT22;11312;51.464;6.968;2023-09-19T05:32:18;13.90;99.90
22288;DHT22;11312;51.464;6.968;2023-09-19T05:34:45;13.90;99.90
22288;DHT22;11312;51.464;6.968;2023-09-19T05:37:11;13.90;99.90
22288;DHT22;11312;51.464;6.968;2023-09-19T05:39:36;14.00;99.90
22288;DHT22;11312;51.464;6.968;2023-09-19T05:42:03;14.00;99.90
22288;DHT22;11312;51.464;6.968;2023-09-19T05:44:29;14.10;99.90
22288;DHT22;11312;51.464;6.968;2023-09-19T05:46:54;14.10;99.90
22288;DHT22;11312;51.464;6.968;2023-09-19T05:49:22;14.20;99.90
22288;DHT22;11312;51.464;6.968;2023-09-19T05:51:47;14.20;99.90
22288;DHT22;11312;51.464;6.968;2023-09-19T05:54:13;14.30;99.90
22288;DHT22;11312;51.464;6.968;2023-09-19T05:56:38;14.30;99.90
22288;DHT22;11312;51.464;6.968;2023-09-19T05:59:04;14.30;99.90
22288;DHT22;11312;51.464;6.968;2023-09-19T06:01:30;14.40;99.90
22288;DHT22;11312;51.464;6.968;2023-09-19T06:03:58;14.30;99.90
22288;DHT22;11312;51.464;6.968;2023-09-19T06:06:26;14.40;99.90
22288;DHT22;11312;51.464;6.968;2023-09-19T06:08:51;14.40;99.90
22288;DHT22;11312;51.464;6.968;2023-09-19T06:11:17;14.40;99.90
22288;DHT22;11312;51.464;6.968;2023-09-19T06:13:46;14.50;99.90
22288;DHT22;11312;51.464;6.968;2023-09-19T06:16:12;14.50;99.90
22288;DHT22;11312;51.464;6.968;2023-09-19T06:18:38;14.60;99.90
22288;DHT22;11312;51.464;6.968;2023-09-19T06:21:04;14.60;99.90
22288;DHT22;11312;51.464;6.968;2023-09-19T06:23:33;14.60;99.90
22288;DHT22;11312;51.464;6.968;2023-09-19T06:25:59;14.60;99.90
22288;DHT22;11312;51.464;6.968;2023-09-19T06:28:25;14.60;99.90
22288;DHT22;11312;51.464;6.968;2023-09-19T06:30:54;14.60;99.90
22288;DHT22;11312;51.464;6.968;2023-09-19T06:33:20;14.70;99.90
22288;DHT22;11312;51.464;6.968;2023-09-19T06:35:47;14.70;99.90
22288;DHT22;11312;51.464;6.968;2023-09-19T06:38:13;14.80;99.90
22288;DHT22;11312;51.464;6.968;2023-09-19T06:40:41;14.80;99.90
22288;DHT22;11312;51.464;6.968;2023-09-19T06:43:10;14.80;99.90
22288;DHT22;11312;51.464;6.968;2023-09-19T06:45:36;14.80;99.90
22288;DHT22;11312;51.464;6.968;2023-09-19T06:48:01;14.90;99.90
22288;DHT22;11312;51.464;6.968;2023-09-19T06:50:28;14.80;99.90
22288;DHT22;11312;51.464;6.968;2023-09-19T06:52:57;14.90;99.90
22288;DHT22;11312;51.464;6.968;2023-09-19T06:55:25;14.90;99.90
22288;DHT22;11312;51.464;6.968;2023-09-19T06:57:53;14.90;99.90
22288;DHT22;11312;51.464;6.968;2023-09-19T07:00:22;15.00;99.90
22288;DHT22;11312;51.464;6.968;2023-09-19T07:03:15;15.00;99.90
22288;DHT22;11312;51.464;6.968;2023-09-19T07:05:44;15.10;99.90
22288;DHT22;11312;51.464;6.968;2023-09-19T07:08:10;15.10;99.90
22288;DHT22;11312;51.464;6.968;2023-09-19T07:10:42;15.10;99.90
22288;DHT22;11312;51.464;6.968;2023-09-19T07:13:14;15.30;99.90
22288;DHT22;11312;51.464;6.968;2023-09-19T07:15:42;15.30;99.90
22288;DHT22;11312;51.464;6.968;2023-09-19T07:18:12;15.30;99.90
22288;DHT22;11312;51.464;6.968;2023-09-19T07:20:40;15.30;99.90
22288;DHT22;11312;51.464;6.968;2023-09-19T07:23:14;15.50;99.90
22288;DHT22;11312;51.464;6.968;2023-09-19T07:25:40;15.50;99.90
22288;DHT22;11312;51.464;6.968;2023-09-19T07:28:06;15.50;99.90
22288;DHT22;11312;51.464;6.968;2023-09-19T07:30:32;15.50;99.90
22288;DHT22;11312;51.464;6.968;2023-09-19T07:32:57;15.70;99.90
22288;DHT22;11312;51.464;6.968;2023-09-19T07:35:23;15.60;99.90
22288;DHT22;11312;51.464;6.968;2023-09-19T07:37:49;15.70;99.90
22288;DHT22;11312;51.464;6.968;2023-09-19T07:40:19;15.90;99.90
22288;DHT22;11312;51.464;6.968;2023-09-19T07:42:45;15.90;99.90
22288;DHT22;11312;51.464;6.968;2023-09-19T07:45:12;15.90;99.90
22288;DHT22;11312;51.464;6.968;2023-09-19T07:50:11;16.20;99.90
22288;DHT22;11312;51.464;6.968;2023-09-19T07:52:37;16.20;99.90
22288;DHT22;11312;51.464;6.968;2023-09-19T07:55:06;16.00;99.90
22288;DHT22;11312;51.464;6.968;2023-09-19T07:57:35;16.10;99.90
22288;DHT22;11312;51.464;6.968;2023-09-19T08:00:02;16.10;99.90
22288;DHT22;11312;51.464;6.968;2023-09-19T08:02:34;16.10;99.90
22288;DHT22;11312;51.464;6.968;2023-09-19T08:04:59;16.30;99.90
22288;DHT22;11312;51.464;6.968;2023-09-19T08:07:26;16.30;99.90
22288;DHT22;11312;51.464;6.968;2023-09-19T08:09:54;16.30;99.90
22288;DHT22;11312;51.464;6.968;2023-09-19T08:12:19;16.50;99.90
22288;DHT22;11312;51.464;6.968;2023-09-19T08:14:49;16.50;99.90
22288;DHT22;11312;51.464;6.968;2023-09-19T08:17:16;16.60;99.90
22288;DHT22;11312;51.464;6.968;2023-09-19T08:19:41;16.70;99.90
22288;DHT22;11312;51.464;6.968;2023-09-19T08:22:10;16.80;99.90
22288;DHT22;11312;51.464;6.968;2023-09-19T08:24:36;16.70;99.90
22288;DHT22;11312;51.464;6.968;2023-09-19T08:27:04;16.80;99.90
22288;DHT22;11312;51.464;6.968;2023-09-19T08:29:30;16.90;99.90
22288;DHT22;11312;51.464;6.968;2023-09-19T08:31:59;16.80;99.90
22288;DHT22;11312;51.464;6.968;2023-09-19T08:34:25;16.90;99.90
22288;DHT22;11312;51.464;6.968;2023-09-19T08:36:52;17.60;99.90
22288;DHT22;11312;51.464;6.968;2023-09-19T08:39:24;17.40;99.90
22288;DHT22;11312;51.464;6.968;2023-09-19T08:41:57;18.10;99.90
22288;DHT22;11312;51.464;6.968;2023-09-19T08:44:24;18.40;99.90
22288;DHT22;11312;51.464;6.968;2023-09-19T08:46:54;18.80;99.90
22288;DHT22;11312;51.464;6.968;2023-09-19T08:49:31;18.70;99.90
22288;DHT22;11312;51.464;6.968;2023-09-19T08:52:09;18.90;99.90
22288;DHT22;11312;51.464;6.968;2023-09-19T08:54:38;18.80;99.90
22288;DHT22;11312;51.464;6.968;2023-09-19T08:57:08;18.50;99.90
22288;DHT22;11312;51.464;6.968;2023-09-19T08:59:37;18.30;99.90
22288;DHT22;11312;51.464;6.968;2023-09-19T09:02:10;18.70;99.90
22288;DHT22;11312;51.464;6.968;2023-09-19T09:04:40;19.20;1.00
22288;DHT22;11312;51.464;6.968;2023-09-19T09:07:11;19.20;99.90
22288;DHT22;11312;51.464;6.968;2023-09-19T09:09:38;18.80;99.90
22288;DHT22;11312;51.464;6.968;2023-09-19T09:12:14;18.80;99.90
22288;DHT22;11312;51.464;6.968;2023-09-19T09:14:44;19.70;99.90
22288;DHT22;11312;51.464;6.968;2023-09-19T09:17:11;19.80;99.90
22288;DHT22;11312;51.464;6.968;2023-09-19T09:19:37;20.10;99.90
22288;DHT22;11312;51.464;6.968;2023-09-19T09:22:10;20.20;99.90
22288;DHT22;11312;51.464;6.968;2023-09-19T09:24:37;19.40;99.90
22288;DHT22;11312;51.464;6.968;2023-09-19T09:27:06;20.50;99.90
22288;DHT22;11312;51.464;6.968;2023-09-19T09:29:49;20.50;99.90
22288;DHT22;11312;51.464;6.968;2023-09-19T09:32:23;20.50;99.90
22288;DHT22;11312;51.464;6.968;2023-09-19T09:34:54;20.50;99.90
22288;DHT22;11312;51.464;6.968;2023-09-19T09:37:20;20.10;99.90
22288;DHT22;11312;51.464;6.968;2023-09-19T09:39:51;20.20;99.90
22288;DHT22;11312;51.464;6.968;2023-09-19T09:45:23;20.70;99.90
22288;DHT22;11312;51.464;6.968;2023-09-19T09:48:03;20.10;99.90
22288;DHT22;11312;51.464;6.968;2023-09-19T09:50:35;20.00;99.90
22288;DHT22;11312;51.464;6.968;2023-09-19T09:53:18;20.40;99.90
22288;DHT22;11312;51.464;6.968;2023-09-19T09:58:52;20.90;1.00
22288;DHT22;11312;51.464;6.968;2023-09-19T10:01:21;19.90;99.90
22288;DHT22;11312;51.464;6.968;2023-09-19T10:03:57;20.00;99.90
22288;DHT22;11312;51.464;6.968;2023-09-19T10:06:23;19.60;99.90
22288;DHT22;11312;51.464;6.968;2023-09-19T10:11:42;19.80;99.90
22288;DHT22;11312;51.464;6.968;2023-09-19T10:14:13;20.10;99.90
22288;DHT22;11312;51.464;6.968;2023-09-19T10:16:49;20.20;99.90
22288;DHT22;11312;51.464;6.968;2023-09-19T10:19:24;20.50;99.90
22288;DHT22;11312;51.464;6.968;2023-09-19T10:21:56;21.40;99.90
22288;DHT22;11312;51.464;6.968;2023-09-19T10:24:24;21.50;99.90
22288;DHT22;11312;51.464;6.968;2023-09-19T10:26:53;21.30;99.90
22288;DHT22;11312;51.464;6.968;2023-09-19T10:29:21;21.30;99.90
22288;DHT22;11312;51.464;6.968;2023-09-19T10:31:47;21.10;99.90
22288;DHT22;11312;51.464;6.968;2023-09-19T10:34:17;20.90;99.90
22288;DHT22;11312;51.464;6.968;2023-09-19T10:36:46;21.20;99.90
22288;DHT22;11312;51.464;6.968;2023-09-19T10:39:16;21.60;99.90
22288;DHT22;11312;51.464;6.968;2023-09-19T10:41:53;21.20;99.90
22288;DHT22;11312;51.464;6.968;2023-09-19T10:44:24;21.60;99.90
22288;DHT22;11312;51.464;6.968;2023-09-19T10:46:54;21.10;99.90
22288;DHT22;11312;51.464;6.968;2023-09-19T10:49:21;20.40;1.00
22288;DHT22;11312;51.464;6.968;2023-09-19T10:51:52;20.30;99.90
22288;DHT22;11312;51.464;6.968;2023-09-19T10:54:21;20.10;1.00
22288;DHT22;11312;51.464;6.968;2023-09-19T10:56:53;20.40;99.90
22288;DHT22;11312;51.464;6.968;2023-09-19T10:59:20;21.00;99.90
22288;DHT22;11312;51.464;6.968;2023-09-19T11:04:23;21.50;99.90
22288;DHT22;11312;51.464;6.968;2023-09-19T11:07:08;21.90;99.90
22288;DHT22;11312;51.464;6.968;2023-09-19T11:15:07;21.20;99.90
22288;DHT22;11312;51.464;6.968;2023-09-19T11:17:43;21.70;99.90
22288;DHT22;11312;51.464;6.968;2023-09-19T11:30:48;23.10;1.00
22288;DHT22;11312;51.464;6.968;2023-09-19T11:33:18;23.80;1.00
22288;DHT22;11312;51.464;6.968;2023-09-19T11:43:49;22.20;1.00
22288;DHT22;11312;51.464;6.968;2023-09-19T11:46:17;21.90;1.00
22288;DHT22;11312;51.464;6.968;2023-09-19T11:48:50;22.00;99.90
22288;DHT22;11312;51.464;6.968;2023-09-19T11:51:20;22.30;1.00
22288;DHT22;11312;51.464;6.968;2023-09-19T11:53:52;23.40;1.00
22288;DHT22;11312;51.464;6.968;2023-09-19T11:56:20;23.90;1.00
22288;DHT22;11312;51.464;6.968;2023-09-19T11:58:52;23.90;1.00
22288;DHT22;11312;51.464;6.968;2023-09-19T12:03:56;26.10;33.90
22288;DHT22;11312;51.464;6.968;2023-09-19T12:06:24;26.20;99.90
22288;DHT22;11312;51.464;6.968;2023-09-19T12:08:50;25.70;99.90
22288;DHT22;11312;51.464;6.968;2023-09-19T12:11:17;24.90;28.10
22288;DHT22;11312;51.464;6.968;2023-09-19T12:13:47;23.70;72.20
22288;DHT22;11312;51.464;6.968;2023-09-19T12:16:14;25.80;14.90
22288;DHT22;11312;51.464;6.968;2023-09-19T12:18:40;24.60;99.90
22288;DHT22;11312;51.464;6.968;2023-09-19T12:21:08;26.00;1.00
22288;DHT22;11312;51.464;6.968;2023-09-19T12:26:37;27.50;1.00
22288;DHT22;11312;51.464;6.968;2023-09-19T12:29:03;27.50;1.00
22288;DHT22;11312;51.464;6.968;2023-09-19T12:31:30;27.60;1.00
22288;DHT22;11312;51.464;6.968;2023-09-19T12:34:01;27.70;1.00
22288;DHT22;11312;51.464;6.968;2023-09-19T12:36:27;28.20;1.00
22288;DHT22;11312;51.464;6.968;2023-09-19T12:38:56;28.70;1.00
22288;DHT22;11312;51.464;6.968;2023-09-19T12:41:25;29.20;1.00
22288;DHT22;11312;51.464;6.968;2023-09-19T12:43:52;29.20;1.00
22288;DHT22;11312;51.464;6.968;2023-09-19T12:46:22;29.30;1.00
22288;DHT22;11312;51.464;6.968;2023-09-19T12:49:19;28.30;1.00
22288;DHT22;11312;51.464;6.968;2023-09-19T12:51:46;29.50;1.00
22288;DHT22;11312;51.464;6.968;2023-09-19T12:54:13;28.20;1.00
22288;DHT22;11312;51.464;6.968;2023-09-19T12:56:44;27.40;1.00
22288;DHT22;11312;51.464;6.968;2023-09-19T12:59:14;27.10;1.00
22288;DHT22;11312;51.464;6.968;2023-09-19T13:01:41;26.70;1.00
22288;DHT22;11312;51.464;6.968;2023-09-19T13:04:12;28.60;1.00
22288;DHT22;11312;51.464;6.968;2023-09-19T13:06:38;29.00;1.00
22288;DHT22;11312;51.464;6.968;2023-09-19T13:09:12;27.20;99.90
22288;DHT22;11312;51.464;6.968;2023-09-19T13:11:40;27.50;1.00
22288;DHT22;11312;51.464;6.968;2023-09-19T13:19:47;25.20;1.00
22288;DHT22;11312;51.464;6.968;2023-09-19T13:22:43;26.20;1.00
22288;DHT22;11312;51.464;6.968;2023-09-19T13:25:18;26.40;1.00
22288;DHT22;11312;51.464;6.968;2023-09-19T13:27:46;27.70;1.00
22288;DHT22;11312;51.464;6.968;2023-09-19T13:30:13;27.20;99.90
22288;DHT22;11312;51.464;6.968;2023-09-19T13:32:39;25.30;99.90
22288;DHT22;11312;51.464;6.968;2023-09-19T13:35:07;25.80;1.00
22288;DHT22;11312;51.464;6.968;2023-09-19T13:37:38;24.50;1.00
22288;DHT22;11312;51.464;6.968;2023-09-19T13:42:33;22.70;1.00
22288;DHT22;11312;51.464;6.968;2023-09-19T13:45:00;22.50;1.00
22288;DHT22;11312;51.464;6.968;2023-09-19T13:47:25;21.70;99.90
22288;DHT22;11312;51.464;6.968;2023-09-19T13:49:52;21.10;1.00
22288;DHT22;11312;51.464;6.968;2023-09-19T13:52:21;20.60;1.00
22288;DHT22;11312;51.464;6.968;2023-09-19T13:54:52;20.40;99.90
22288;DHT22;11312;51.464;6.968;2023-09-19T13:57:18;20.30;1.00
22288;DHT22;11312;51.464;6.968;2023-09-19T13:59:44;20.40;99.90
22288;DHT22;11312;51.464;6.968;2023-09-19T14:02:09;20.30;1.00
22288;DHT22;11312;51.464;6.968;2023-09-19T14:04:35;20.40;99.90
22288;DHT22;11312;51.464;6.968;2023-09-19T14:07:01;20.40;99.90
22288;DHT22;11312;51.464;6.968;2023-09-19T14:09:27;20.20;99.90
22288;DHT22;11312;51.464;6.968;2023-09-19T14:11:53;20.50;1.00
22288;DHT22;11312;51.464;6.968;2023-09-19T14:14:19;20.40;1.00
22288;DHT22;11312;51.464;6.968;2023-09-19T14:16:47;20.40;51.50
22288;DHT22;11312;51.464;6.968;2023-09-19T14:19:13;20.40;99.90
22288;DHT22;11312;51.464;6.968;2023-09-19T14:21:40;20.30;1.00
22288;DHT22;11312;51.464;6.968;2023-09-19T14:24:06;20.20;99.90
22288;DHT22;11312;51.464;6.968;2023-09-19T14:26:40;20.20;99.90
22288;DHT22;11312;51.464;6.968;2023-09-19T14:29:06;20.20;99.90
22288;DHT22;11312;51.464;6.968;2023-09-19T14:31:37;20.20;99.90
22288;DHT22;11312;51.464;6.968;2023-09-19T14:34:03;20.00;1.00
22288;DHT22;11312;51.464;6.968;2023-09-19T14:36:30;19.90;1.00
22288;DHT22;11312;51.464;6.968;2023-09-19T14:38:56;19.80;1.00
22288;DHT22;11312;51.464;6.968;2023-09-19T14:41:25;19.90;1.00
22288;DHT22;11312;51.464;6.968;2023-09-19T14:43:54;20.10;1.00
22288;DHT22;11312;51.464;6.968;2023-09-19T14:46:21;20.20;88.70
22288;DHT22;11312;51.464;6.968;2023-09-19T14:48:46;20.10;1.00
22288;DHT22;11312;51.464;6.968;2023-09-19T14:51:16;20.10;1.00
22288;DHT22;11312;51.464;6.968;2023-09-19T14:53:44;20.00;99.90
22288;DHT22;11312;51.464;6.968;2023-09-19T14:56:10;19.90;1.00
22288;DHT22;11312;51.464;6.968;2023-09-19T14:58:37;19.90;99.90
22288;DHT22;11312;51.464;6.968;2023-09-19T15:01:08;19.90;99.90
22288;DHT22;11312;51.464;6.968;2023-09-19T15:03:36;19.90;99.90
22288;DHT22;11312;51.464;6.968;2023-09-19T15:06:05;19.90;99.90
22288;DHT22;11312;51.464;6.968;2023-09-19T15:08:32;19.80;1.00
22288;DHT22;11312;51.464;6.968;2023-09-19T15:11:04;19.80;1.00
22288;DHT22;11312;51.464;6.968;2023-09-19T15:13:31;19.70;99.90
22288;DHT22;11312;51.464;6.968;2023-09-19T15:16:01;19.70;1.00
22288;DHT22;11312;51.464;6.968;2023-09-19T15:18:28;19.60;1.00
22288;DHT22;11312;51.464;6.968;2023-09-19T15:20:56;19.60;1.00
22288;DHT22;11312;51.464;6.968;2023-09-19T15:23:22;19.60;99.90
22288;DHT22;11312;51.464;6.968;2023-09-19T15:25:49;19.60;1.00
22288;DHT22;11312;51.464;6.968;2023-09-19T15:28:14;19.70;1.00
22288;DHT22;11312;51.464;6.968;2023-09-19T15:30:40;19.60;99.90
22288;DHT22;11312;51.464;6.968;2023-09-19T15:33:06;19.60;99.90
22288;DHT22;11312;51.464;6.968;2023-09-19T15:35:31;19.70;1.00
22288;DHT22;11312;51.464;6.968;2023-09-19T15:37:57;19.80;99.90
22288;DHT22;11312;51.464;6.968;2023-09-19T15:40:26;19.80;1.00
22288;DHT22;11312;51.464;6.968;2023-09-19T15:42:51;19.80;1.00
22288;DHT22;11312;51.464;6.968;2023-09-19T15:45:17;19.90;1.00
22288;DHT22;11312;51.464;6.968;2023-09-19T15:47:44;20.10;18.90
22288;DHT22;11312;51.464;6.968;2023-09-19T15:50:10;20.10;1.00
22288;DHT22;11312;51.464;6.968;2023-09-19T15:52:39;20.10;1.00
22288;DHT22;11312;51.464;6.968;2023-09-19T15:55:06;20.00;99.90
22288;DHT22;11312;51.464;6.968;2023-09-19T15:57:38;20.00;99.90
22288;DHT22;11312;51.464;6.968;2023-09-19T16:00:05;19.80;99.90
22288;DHT22;11312;51.464;6.968;2023-09-19T16:02:36;19.80;1.00
22288;DHT22;11312;51.464;6.968;2023-09-19T16:05:01;19.50;1.00
22288;DHT22;11312;51.464;6.968;2023-09-19T16:07:32;19.40;99.90
22288;DHT22;11312;51.464;6.968;2023-09-19T16:09:59;19.40;1.00
22288;DHT22;11312;51.464;6.968;2023-09-19T16:12:25;19.30;1.00
22288;DHT22;11312;51.464;6.968;2023-09-19T16:14:51;19.30;1.00
22288;DHT22;11312;51.464;6.968;2023-09-19T16:17:17;19.20;1.00
22288;DHT22;11312;51.464;6.968;2023-09-19T16:19:43;19.20;99.90
22288;DHT22;11312;51.464;6.968;2023-09-19T16:22:10;19.20;99.90
22288;DHT22;11312;51.464;6.968;2023-09-19T16:24:35;19.20;1.00
22288;DHT22;11312;51.464;6.968;2023-09-19T16:27:01;19.20;1.00
22288;DHT22;11312;51.464;6.968;2023-09-19T16:29:26;19.10;99.90
22288;DHT22;11312;51.464;6.968;2023-09-19T16:31:52;19.10;1.00
22288;DHT22;11312;51.464;6.968;2023-09-19T16:34:18;19.20;1.00
22288;DHT22;11312;51.464;6.968;2023-09-19T16:36:43;19.30;1.00
22288;DHT22;11312;51.464;6.968;2023-09-19T16:39:09;19.30;1.00
22288;DHT22;11312;51.464;6.968;2023-09-19T16:41:36;19.30;1.00
22288;DHT22;11312;51.464;6.968;2023-09-19T16:44:02;19.20;1.00
22288;DHT22;11312;51.464;6.968;2023-09-19T16:46:29;19.20;1.00
22288;DHT22;11312;51.464;6.968;2023-09-19T16:48:54;19.10;1.00
22288;DHT22;11312;51.464;6.968;2023-09-19T16:51:20;19.20;1.00
22288;DHT22;11312;51.464;6.968;2023-09-19T16:53:46;19.20;1.00
22288;DHT22;11312;51.464;6.968;2023-09-19T16:56:14;19.30;1.00